Latest Coastal Weather Observations for Cape Otway

IDT60701

Issued at 12:11 am EDT Monday 8 February 2016 (issued every 10 minutes, with the page automatically refreshed every 10 minutes)

About coastal observations | Map of coastal stations | Coastal observations for TAS | Marine services | Other Formats
Station Details ID: 090015 Name: CAPE OTWAY LIGHTHOUSE Lat: -38.86 Lon: 143.51 Height: 82.0 m
Data from the previous 72 hours. | See also: Recent months at Cape Otway
Date/Time
EDT
Temp

°C
Wind Pressure Rain
since 9am
mm
Weather Cloud Vis
km
Sea
Height
m
Swell
Dir
 
Speed
knots
Gust
knots
hPa Trend Height
m
Period
s
Dir
08/12:00am 18.1 SSW 7 10 1020.8 - 0.0 - - - - - - -
 
Date/Time
EDT
Temp

°C
Wind Pressure Rain
since 9am
mm
Weather Cloud Vis
km
Sea
Height
m
Swell
Dir
 
Speed
knots
Gust
knots
hPa Trend Height
m
Period
s
Dir
07/11:30pm 17.9 SSW 10 13 1020.9 - 0.0 - - - - - - -
07/11:00pm 17.6 SSW 8 11 1020.8 - 0.0 - - - - - - -
07/10:30pm 17.3 SW 7 10 1020.7 - 0.0 - - - - - - -
07/10:00pm 17.5 SW 8 10 1020.6 - 0.0 - - - - - - -
07/09:30pm 17.6 WSW 7 10 1020.3 - 0.0 - - - - - - -
07/09:00pm 17.7 WSW 8 10 1019.6 - 0.0 - - - - - - -
07/08:30pm 18.1 WSW 7 9 1019.4 - 0.0 - - - - - - -
07/08:00pm 18.9 WSW 7 9 1019.0 - 0.0 - - - - - - -
07/07:30pm 19.6 WSW 8 10 1018.8 - 0.0 - - - - - - -
07/07:00pm 20.2 W 8 11 1018.6 - 0.0 - - - - - - -
07/06:30pm 19.6 W 9 12 1018.5 - 0.0 - - - - - - -
07/06:00pm 20.5 W 9 12 1018.2 - 0.0 - - - - - - -
07/05:30pm 19.8 W 10 12 1018.2 - 0.0 - - - - - - -
07/05:00pm 20.6 W 9 12 1018.1 - 0.0 - - - - - - -
07/04:30pm 20.7 W 10 13 1018.2 - 0.0 - - - - - - -
07/04:00pm 20.6 W 11 13 1018.2 - 0.0 - - - - - - -
07/03:30pm 21.3 W 11 14 1018.2 - 0.0 - - - - - - -
07/03:00pm 21.4 W 10 12 1017.9 - 0.0 - - - - - - -
07/02:30pm 21.5 W 10 12 1018.3 - 0.0 - - - - - - -
07/02:00pm 21.6 W 10 13 1018.3 - 0.0 - - - - - - -
07/01:30pm 21.4 W 10 12 1018.1 - 0.0 - - - - - - -
07/01:00pm 20.6 W 9 12 1018.0 - 0.0 - - - - - - -
07/12:30pm 20.4 W 9 12 1018.2 - 0.0 - - - - - - -
07/12:00pm 20.4 W 9 12 1018.0 - 0.0 - - - - - - -
07/11:30am 20.2 W 9 12 1018.2 - 0.0 - - - - - - -
07/11:00am 19.8 W 9 12 1018.1 - 0.0 - - - - - - -
07/10:30am 20.1 W 8 10 1017.8 - 0.0 - - - - - - -
07/10:00am 19.9 W 7 10 1017.7 - 0.0 - - - - - - -
07/09:30am 19.2 WNW 7 9 1017.6 - 0.0 - - - - - - -
07/09:00am 18.5 WNW 7 11 1017.4 - 0.0 - - - - - - -
07/08:30am 18.0 WNW 8 11 1017.3 - 0.0 - - - - - - -
07/08:00am 17.5 WNW 8 11 1016.9 - 0.0 - - - - - - -
07/07:30am 17.3 WNW 10 13 1016.8 - 0.0 - - - - - - -
07/07:00am 17.3 WNW 10 13 1016.6 - 0.0 - - - - - - -
07/06:30am 17.1 WNW 11 14 1016.3 - 0.0 - - - - - - -
07/06:00am 16.9 WNW 12 15 1015.7 - 0.0 - - - - - - -
07/05:30am 17.1 WNW 10 14 1015.1 - 0.0 - - - - - - -
07/05:00am 17.1 WNW 11 14 1014.9 - 0.0 - - - - - - -
07/04:30am 17.0 WNW 12 15 1014.8 - 0.0 - - - - - - -
07/04:00am 17.2 WNW 10 13 1014.8 - 0.0 - - - - - - -
07/03:30am 16.3 WNW 9 12 1015.1 - 0.0 - - - - - - -
07/03:00am 16.6 WNW 7 9 1015.1 - 0.0 - - - - - - -
07/02:30am 17.1 WNW 10 12 1015.1 - 0.0 - - - - - - -
07/02:00am 17.3 NNW 9 11 1015.1 - 0.0 - - - - - - -
07/01:30am 17.4 NNW 10 12 1015.2 - 0.0 - - - - - - -
07/01:00am 17.7 NNW 7 9 1015.7 - 0.0 - - - - - - -
07/12:30am 17.6 NW 5 6 1015.5 - 0.0 - - - - - - -
07/12:00am 18.5 WSW 3 5 1015.4 - 0.0 - - - - - - -
 
Date/Time
EDT
Temp

°C
Wind Pressure Rain
since 9am
mm
Weather Cloud Vis
km
Sea
Height
m
Swell
Dir
 
Speed
knots
Gust
knots
hPa Trend Height
m
Period
s
Dir
06/11:30pm 19.9 NE 7 9 1015.5 - 0.0 - - - - - - -
06/11:00pm 19.0 ENE 8 10 1015.8 - 0.0 - - - - - - -
06/10:30pm 18.6 ENE 9 10 1015.9 - 0.0 - - - - - - -
06/10:00pm 19.0 ENE 6 7 1015.9 - 0.0 - - - - - - -
06/09:30pm 19.7 NE 7 9 1015.5 - 0.0 - - - - - - -
06/09:00pm 19.8 NE 8 9 1015.2 - 0.0 - - - - - - -
06/08:30pm 20.6 ENE 8 10 1015.2 - 0.0 - - - - - - -
06/08:00pm 21.3 E 7 9 1015.0 - 0.0 - - - - - - -
06/07:30pm 22.3 E 7 10 1015.0 - 0.0 - - - - - - -
06/07:00pm 22.5 E 7 9 1014.7 - 0.0 - - - - - - -
06/06:30pm 22.6 E 8 10 1014.6 - 0.0 - - - - - - -
06/06:00pm 22.4 E 7 10 1014.6 - 0.0 - - - - - - -
06/05:30pm 21.8 E 5 9 1014.8 - 0.0 - - - - - - -
06/05:00pm 22.7 E 6 10 1014.8 - 0.0 - - - - - - -
06/04:30pm 22.0 E 6 9 1014.9 - 0.0 - - - - - - -
06/04:00pm 22.1 E 6 9 1015.2 - 0.0 - - - - - - -
06/03:30pm 21.8 E 7 10 1015.4 - 0.0 - - - - - - -
06/03:00pm 21.5 E 8 12 1015.6 - 0.0 - - - - - - -
06/02:30pm 22.0 E 9 13 1016.0 - 0.0 - - - - - - -
06/02:00pm 21.6 E 9 11 1016.2 - 0.0 - - - - - - -
06/01:30pm 21.4 E 9 12 1016.4 - 0.0 - - - - - - -
06/01:00pm 20.3 ESE 12 13 1016.6 - 0.0 - - - - - - -
06/12:30pm 21.0 E 11 13 1016.8 - 0.0 - - - - - - -
06/12:00pm 21.3 E 9 12 1016.8 - 0.0 - - - - - - -
06/11:30am 20.5 E 10 12 1017.0 - 0.0 - - - - - - -
06/11:00am 20.1 SSE 5 8 1017.2 - 0.0 - - - - - - -
06/10:30am 19.6 SSW 4 6 1017.4 - 0.0 - - - - - - -
06/10:00am 18.5 SW 5 7 1017.3 - 0.0 - - - - - - -
06/09:30am 18.8 W 5 7 1017.4 - 0.0 - - - - - - -
06/09:00am 19.3 ENE 11 16 1017.2 - 0.0 - - - - - - -
06/08:30am 18.8 ENE 10 16 1017.3 - 0.0 - - - - - - -
06/08:00am 18.1 ENE 11 16 1017.0 - 0.0 - - - - - - -
06/07:30am 17.4 ENE 14 22 1016.4 - 0.0 - - - - - - -
06/07:00am 17.2 ENE 14 21 1016.3 - 0.0 - - - - - - -
06/06:30am 17.1 ENE 13 20 1016.3 - 0.0 - - - - - - -
06/06:00am 17.3 ENE 14 21 1016.1 - 0.0 - - - - - - -
06/05:40am 17.3 E 16 26 1016.1 - 0.0 - - - - - - -
06/05:30am 17.3 E 15 21 1016.1 - 0.0 - - - - - - -
06/05:00am 17.5 E 18 27 1015.9 - 0.0 - - - - - - -
06/04:32am 17.6 E 17 27 1016.2 - 0.0 - - - - - - -
06/04:30am 17.5 E 17 25 1016.2 - 0.0 - - - - - - -
06/04:00am 17.7 E 16 23 1016.6 - 0.0 - - - - - - -
06/03:37am 17.7 E 16 26 1016.6 - 0.0 - - - - - - -
06/03:30am 17.7 E 15 23 1016.7 - 0.0 - - - - - - -
06/03:08am 17.7 E 15 28 1016.9 - 0.0 - - - - - - -
06/03:00am 17.7 E 15 23 1016.7 - 0.0 - - - - - - -
06/02:30am 17.8 E 16 23 1017.2 - 0.0 - - - - - - -
06/02:00am 17.9 E 15 23 1017.6 - 0.0 - - - - - - -
06/01:30am 17.9 E 15 22 1018.0 - 0.0 - - - - - - -
06/01:00am 18.0 E 16 24 1018.2 - 0.0 - - - - - - -
06/12:30am 18.1 E 15 23 1018.3 - 0.0 - - - - - - -
06/12:00am 18.2 E 16 25 1018.3 - 0.0 - - - - - - -
 
Date/Time
EDT
Temp

°C
Wind Pressure Rain
since 9am
mm
Weather Cloud Vis
km
Sea
Height
m
Swell
Dir
 
Speed
knots
Gust
knots
hPa Trend Height
m
Period
s
Dir
05/11:30pm 18.2 E 16 22 1018.9 - 0.0 - - - - - - -
05/11:00pm 18.3 E 15 23 1019.1 - 0.0 - - - - - - -
05/10:30pm 18.3 E 13 19 1019.4 - 0.0 - - - - - - -
05/10:00pm 18.4 E 14 19 1019.5 - 0.0 - - - - - - -
05/09:30pm 18.4 E 13 20 1019.3 - 0.0 - - - - - - -
05/09:00pm 18.4 E 11 20 1018.8 - 0.0 - - - - - - -
05/08:30pm 18.6 E 11 18 1019.0 - 0.0 - - - - - - -
05/08:00pm 18.8 E 11 18 1018.8 - 0.0 - - - - - - -
05/07:30pm 19.1 E 11 17 1018.7 - 0.0 - - - - - - -
05/07:00pm 19.3 E 12 20 1018.6 - 0.0 - - - - - - -
05/06:30pm 19.6 E 12 21 1018.4 - 0.0 - - - - - - -
05/06:00pm 19.7 E 14 21 1018.3 - 0.0 - - - - - - -
05/05:30pm 19.9 E 14 21 1018.7 - 0.0 - - - - - - -
05/05:00pm 20.1 E 14 21 1018.8 - 0.0 - - - - - - -
05/04:30pm 20.2 E 14 23 1019.1 - 0.0 - - - - - - -
05/04:00pm 20.6 E 15 22 1019.3 - 0.0 - - - - - - -
05/03:30pm 20.7 E 15 23 1019.6 - 0.0 - - - - - - -
05/03:00pm 20.8 E 12 20 1019.7 - 0.0 - - - - - - -
05/02:30pm 20.8 E 12 20 1020.0 - 0.0 - - - - - - -
05/02:00pm 21.0 E 12 19 1020.6 - 0.0 - - - - - - -
05/01:30pm 21.2 E 11 18 1020.8 - 0.0 - - - - - - -
05/01:00pm 21.5 E 11 19 1021.1 - 0.0 - - - - - - -
05/12:30pm 21.4 E 10 15 1021.4 - 0.0 - - - - - - -
05/12:00pm 21.1 E 10 15 1021.3 - 0.0 - - - - - - -
05/11:30am 21.0 E 10 17 1021.7 - 0.0 - - - - - - -
05/11:00am 20.9 E 11 17 1021.9 - 0.0 - - - - - - -
05/10:30am 20.3 E 10 15 1021.9 - 0.0 - - - - - - -
05/10:00am 19.8 E 11 17 1021.8 - 0.0 - - - - - - -
05/09:30am 18.9 ESE 13 16 1021.9 - 0.0 - - - - - - -
05/09:00am 17.6 ESE 14 17 1021.6 - 0.0 - - - - - - -
05/08:30am 17.0 SE 8 15 1021.6 - 0.0 - - - - - - -
05/08:00am 16.5 SE 6 9 1021.4 - 0.0 - - - - - - -
05/07:30am 16.3 SE 6 9 1021.3 - 0.0 - - - - - - -
05/07:00am 16.1 SE 7 10 1021.0 - 0.0 - - - - - - -
05/06:30am 15.8 S 4 7 1021.0 - 0.0 - - - - - - -
05/06:00am 15.7 W 4 8 1020.7 - 0.0 - - - - - - -
05/05:30am 15.6 SW 5 7 1020.6 - 0.0 - - - - - - -
05/05:00am 15.5 W 5 7 1020.4 - 0.0 - - - - - - -
05/04:30am 15.5 W 5 9 1020.5 - 0.0 - - - - - - -
05/04:00am 15.5 WNW 5 10 1020.5 - 0.0 - - - - - - -
05/03:30am 15.6 SSE 5 8 1020.8 - 0.0 - - - - - - -
05/03:00am 15.5 SSE 5 23 1020.7 - 0.0 - - - - - - -
05/02:30am 15.5 SSW 5 10 1021.2 - 0.0 - - - - - - -
05/02:00am 15.3 S 6 10 1021.3 - 0.0 - - - - - - -
05/01:30am 15.6 SSW 6 11 1021.4 - 0.0 - - - - - - -
05/01:00am 15.5 S 6 13 1021.3 - 0.0 - - - - - - -
05/12:30am 15.6 SE 9 13 1021.4 - 0.0 - - - - - - -

Other Formats:

Comma delimited format used in spreadsheet applications
http://www.bom.gov.au/fwo/IDT60701/IDT60701.94842.axf

JavaScript Object Notation format (JSON) in row-major order
http://www.bom.gov.au/fwo/IDT60701/IDT60701.94842.json